Anopal', Belarus

5:27 AM +03 on December 05, 2016 (GMT +0300)
Minsk-2 | | Change Station

Elev 669 ft 53.88 °N, 28.03 °E | Updated 27 minutes ago

Light Snow
Light Snow
18 °F
Feels Like 8 °F
N
7
Wind Variable Wind from SSW
Gusts 13 mph

Today
High -- | Low -- °F
--% Chance of Precip.
Yesterday
High -- | Low -- °F
Precip. -- in
Pressure 30.18 in
Visibility 6.2 miles
Clouds Mostly Cloudy 3600 ft
Windchill 8 °F
Dew Point 16 °F
Humidity 93%
Rainfall 0.00 in
Snow Depth Not available.
9:09 AM 4:51 PM
Waxing Crescent, 27% visible
METAR UMMS 050200Z 21003G06MPS 160V240 9999 -SN BKN036 M08/M09 Q1022 R31/810249 NOSIG
Pressure 30.18 in
Visibility 6.2 miles
Clouds Mostly Cloudy 3600 ft
Windchill 8 °F
Dew Point 16 °F
Humidity 93%
Rainfall 0.00 in
Snow Depth Not available.
9:09 AM 4:51 PM
Waxing Crescent, 27% visible
METAR UMMS 050200Z 21003G06MPS 160V240 9999 -SN BKN036 M08/M09 Q1022 R31/810249 NOSIG

10-Day Weather Forecast

×

Almanac

Astronomy

Dec. 05, 2016 Rise Set
Actual Time
Civil Twilight
Nautical Twilight
Astronomical Twilight
Moon
Length of Visible Light
Length of Day
Tomorrow will be .
, % of the Moon is Illuminated

Today's Extremes

Country Highs Country Lows

Community

WunderPhotos

Upload Photos

1,955,746 photos uploaded!

WunderBlog® & News

Nearby

Air Quality

  Air Quality AQ Index Pollutant
Not available.

Snow Depth

Station Depth Elevation

Earthquake Activity

City Distance Mag. Time & Date
Minimum magnitude displayed is 2.5.

Coastal Water Temperatures

Place Temperature

Stations

Nearby Weather Stations

Station Location Temp. Windchill Dew Point Humidity Wind Precip. Elev Updated Type